sensor_id;sensor_type;location;lat;lon;timestamp;P1;durP1;ratioP1;P2;durP2;ratioP2
76795;SDS011;65745;50.278;18.192;2022-12-07T00:02:35;10.90;;;7.40;;
76795;SDS011;65745;50.278;18.192;2022-12-07T00:05:08;10.10;;;8.10;;
76795;SDS011;65745;50.278;18.192;2022-12-07T00:07:40;8.70;;;7.70;;
76795;SDS011;65745;50.278;18.192;2022-12-07T00:10:12;7.10;;;5.60;;
76795;SDS011;65745;50.278;18.192;2022-12-07T00:12:44;7.70;;;6.20;;
76795;SDS011;65745;50.278;18.192;2022-12-07T00:15:17;13.70;;;9.20;;
76795;SDS011;65745;50.278;18.192;2022-12-07T00:17:49;12.90;;;9.00;;
76795;SDS011;65745;50.278;18.192;2022-12-07T00:20:21;12.40;;;8.90;;
76795;SDS011;65745;50.278;18.192;2022-12-07T00:22:53;10.90;;;7.50;;
76795;SDS011;65745;50.278;18.192;2022-12-07T00:25:25;11.30;;;8.70;;
76795;SDS011;65745;50.278;18.192;2022-12-07T00:27:58;10.10;;;8.50;;
76795;SDS011;65745;50.278;18.192;2022-12-07T00:30:30;11.40;;;8.00;;
76795;SDS011;65745;50.278;18.192;2022-12-07T00:33:02;9.70;;;8.10;;
76795;SDS011;65745;50.278;18.192;2022-12-07T00:35:34;12.10;;;8.80;;
76795;SDS011;65745;50.278;18.192;2022-12-07T00:38:06;10.60;;;8.20;;
76795;SDS011;65745;50.278;18.192;2022-12-07T00:40:38;12.60;;;8.70;;
76795;SDS011;65745;50.278;18.192;2022-12-07T00:43:11;9.10;;;6.00;;
76795;SDS011;65745;50.278;18.192;2022-12-07T00:45:43;9.00;;;6.30;;
76795;SDS011;65745;50.278;18.192;2022-12-07T00:48:15;14.30;;;9.30;;
76795;SDS011;65745;50.278;18.192;2022-12-07T00:50:47;12.40;;;8.70;;
76795;SDS011;65745;50.278;18.192;2022-12-07T00:53:20;13.00;;;8.50;;
76795;SDS011;65745;50.278;18.192;2022-12-07T00:55:53;9.80;;;8.20;;
76795;SDS011;65745;50.278;18.192;2022-12-07T00:58:25;9.30;;;8.10;;
76795;SDS011;65745;50.278;18.192;2022-12-07T01:00:59;11.70;;;8.20;;
76795;SDS011;65745;50.278;18.192;2022-12-07T01:03:32;10.20;;;8.80;;
76795;SDS011;65745;50.278;18.192;2022-12-07T01:06:05;11.30;;;8.40;;
76795;SDS011;65745;50.278;18.192;2022-12-07T01:08:38;12.00;;;8.80;;
76795;SDS011;65745;50.278;18.192;2022-12-07T01:11:11;12.90;;;9.30;;
76795;SDS011;65745;50.278;18.192;2022-12-07T01:13:46;10.60;;;7.60;;
76795;SDS011;65745;50.278;18.192;2022-12-07T01:16:19;10.70;;;6.30;;
76795;SDS011;65745;50.278;18.192;2022-12-07T01:18:55;13.80;;;9.90;;
76795;SDS011;65745;50.278;18.192;2022-12-07T01:21:28;11.40;;;8.60;;
76795;SDS011;65745;50.278;18.192;2022-12-07T01:24:05;11.00;;;8.20;;
76795;SDS011;65745;50.278;18.192;2022-12-07T01:26:41;11.50;;;8.30;;
76795;SDS011;65745;50.278;18.192;2022-12-07T01:29:13;11.10;;;8.70;;
76795;SDS011;65745;50.278;18.192;2022-12-07T01:31:47;10.10;;;8.30;;
76795;SDS011;65745;50.278;18.192;2022-12-07T01:34:20;11.60;;;8.90;;
76795;SDS011;65745;50.278;18.192;2022-12-07T01:36:52;12.80;;;8.90;;
76795;SDS011;65745;50.278;18.192;2022-12-07T01:39:24;11.00;;;8.00;;
76795;SDS011;65745;50.278;18.192;2022-12-07T01:41:56;12.40;;;8.90;;
76795;SDS011;65745;50.278;18.192;2022-12-07T01:44:29;10.90;;;6.40;;
76795;SDS011;65745;50.278;18.192;2022-12-07T01:47:02;10.20;;;6.80;;
76795;SDS011;65745;50.278;18.192;2022-12-07T01:49:35;14.20;;;9.50;;
76795;SDS011;65745;50.278;18.192;2022-12-07T01:52:13;12.70;;;9.00;;
76795;SDS011;65745;50.278;18.192;2022-12-07T01:54:49;12.40;;;9.10;;
76795;SDS011;65745;50.278;18.192;2022-12-07T01:57:23;10.40;;;8.90;;
76795;SDS011;65745;50.278;18.192;2022-12-07T01:59:56;11.80;;;9.60;;
76795;SDS011;65745;50.278;18.192;2022-12-07T02:02:41;14.00;;;9.30;;
76795;SDS011;65745;50.278;18.192;2022-12-07T02:05:18;13.10;;;10.00;;
76795;SDS011;65745;50.278;18.192;2022-12-07T02:07:52;13.60;;;9.80;;
76795;SDS011;65745;50.278;18.192;2022-12-07T02:10:27;12.60;;;9.20;;
76795;SDS011;65745;50.278;18.192;2022-12-07T02:13:02;11.30;;;7.10;;
76795;SDS011;65745;50.278;18.192;2022-12-07T02:18:16;15.30;;;9.30;;
76795;SDS011;65745;50.278;18.192;2022-12-07T02:20:54;12.90;;;9.00;;
76795;SDS011;65745;50.278;18.192;2022-12-07T02:29:39;12.30;;;8.90;;
76795;SDS011;65745;50.278;18.192;2022-12-07T02:32:18;11.00;;;7.90;;
76795;SDS011;65745;50.278;18.192;2022-12-07T02:34:58;13.70;;;9.90;;
76795;SDS011;65745;50.278;18.192;2022-12-07T02:37:39;12.20;;;9.00;;
76795;SDS011;65745;50.278;18.192;2022-12-07T02:40:19;14.90;;;9.20;;
76795;SDS011;65745;50.278;18.192;2022-12-07T02:42:57;9.30;;;6.70;;
76795;SDS011;65745;50.278;18.192;2022-12-07T02:45:32;10.90;;;7.50;;
76795;SDS011;65745;50.278;18.192;2022-12-07T02:48:10;11.50;;;9.70;;
76795;SDS011;65745;50.278;18.192;2022-12-07T02:50:47;14.30;;;9.60;;
76795;SDS011;65745;50.278;18.192;2022-12-07T02:53:31;11.00;;;7.60;;
76795;SDS011;65745;50.278;18.192;2022-12-07T02:56:07;12.20;;;8.60;;
76795;SDS011;65745;50.278;18.192;2022-12-07T02:58:49;14.20;;;9.40;;
76795;SDS011;65745;50.278;18.192;2022-12-07T03:01:34;11.90;;;8.70;;
76795;SDS011;65745;50.278;18.192;2022-12-07T03:04:19;11.00;;;8.00;;
76795;SDS011;65745;50.278;18.192;2022-12-07T03:07:05;11.30;;;8.10;;
76795;SDS011;65745;50.278;18.192;2022-12-07T03:09:43;10.60;;;8.10;;
76795;SDS011;65745;50.278;18.192;2022-12-07T03:12:24;7.60;;;5.00;;
76795;SDS011;65745;50.278;18.192;2022-12-07T03:15:03;10.10;;;6.80;;
76795;SDS011;65745;50.278;18.192;2022-12-07T03:17:40;10.50;;;7.70;;
76795;SDS011;65745;50.278;18.192;2022-12-07T03:20:16;9.50;;;7.10;;
76795;SDS011;65745;50.278;18.192;2022-12-07T03:22:52;11.60;;;7.40;;
76795;SDS011;65745;50.278;18.192;2022-12-07T03:25:27;9.20;;;6.40;;
76795;SDS011;65745;50.278;18.192;2022-12-07T03:28:02;8.90;;;7.30;;
76795;SDS011;65745;50.278;18.192;2022-12-07T03:30:37;8.10;;;6.10;;
76795;SDS011;65745;50.278;18.192;2022-12-07T03:33:17;8.60;;;6.70;;
76795;SDS011;65745;50.278;18.192;2022-12-07T03:35:54;9.40;;;7.20;;
76795;SDS011;65745;50.278;18.192;2022-12-07T03:38:32;8.60;;;7.00;;
76795;SDS011;65745;50.278;18.192;2022-12-07T03:41:09;7.90;;;6.50;;
76795;SDS011;65745;50.278;18.192;2022-12-07T03:43:46;6.20;;;5.30;;
76795;SDS011;65745;50.278;18.192;2022-12-07T03:46:20;8.70;;;5.20;;
76795;SDS011;65745;50.278;18.192;2022-12-07T03:49:05;8.70;;;6.50;;
76795;SDS011;65745;50.278;18.192;2022-12-07T03:51:43;7.60;;;5.90;;
76795;SDS011;65745;50.278;18.192;2022-12-07T03:54:22;8.00;;;6.00;;
76795;SDS011;65745;50.278;18.192;2022-12-07T03:57:02;9.20;;;6.90;;
76795;SDS011;65745;50.278;18.192;2022-12-07T03:59:36;6.50;;;5.50;;
76795;SDS011;65745;50.278;18.192;2022-12-07T04:02:11;8.40;;;6.00;;
76795;SDS011;65745;50.278;18.192;2022-12-07T04:04:44;7.60;;;5.90;;
76795;SDS011;65745;50.278;18.192;2022-12-07T04:07:18;6.70;;;5.80;;
76795;SDS011;65745;50.278;18.192;2022-12-07T04:09:50;6.90;;;5.80;;
76795;SDS011;65745;50.278;18.192;2022-12-07T04:12:23;7.60;;;6.10;;
76795;SDS011;65745;50.278;18.192;2022-12-07T04:14:56;6.20;;;4.50;;
76795;SDS011;65745;50.278;18.192;2022-12-07T04:17:28;5.60;;;4.50;;
76795;SDS011;65745;50.278;18.192;2022-12-07T04:20:01;7.70;;;6.30;;
76795;SDS011;65745;50.278;18.192;2022-12-07T04:22:34;7.60;;;5.90;;
76795;SDS011;65745;50.278;18.192;2022-12-07T04:25:07;7.40;;;6.20;;
76795;SDS011;65745;50.278;18.192;2022-12-07T04:27:40;9.10;;;6.90;;
76795;SDS011;65745;50.278;18.192;2022-12-07T04:30:12;7.10;;;6.20;;
76795;SDS011;65745;50.278;18.192;2022-12-07T04:32:45;8.30;;;5.70;;
76795;SDS011;65745;50.278;18.192;2022-12-07T04:35:17;7.60;;;6.10;;
76795;SDS011;65745;50.278;18.192;2022-12-07T04:37:49;7.40;;;5.40;;
76795;SDS011;65745;50.278;18.192;2022-12-07T04:40:22;9.10;;;6.20;;
76795;SDS011;65745;50.278;18.192;2022-12-07T04:42:55;9.80;;;6.50;;
76795;SDS011;65745;50.278;18.192;2022-12-07T04:45:27;6.60;;;4.50;;
76795;SDS011;65745;50.278;18.192;2022-12-07T04:47:59;7.30;;;5.60;;
76795;SDS011;65745;50.278;18.192;2022-12-07T04:50:31;9.10;;;6.50;;
76795;SDS011;65745;50.278;18.192;2022-12-07T04:53:14;10.10;;;6.90;;
76795;SDS011;65745;50.278;18.192;2022-12-07T04:55:46;9.60;;;6.10;;
76795;SDS011;65745;50.278;18.192;2022-12-07T04:58:19;7.40;;;6.00;;
76795;SDS011;65745;50.278;18.192;2022-12-07T05:00:54;8.30;;;5.70;;
76795;SDS011;65745;50.278;18.192;2022-12-07T05:03:27;8.60;;;6.00;;
76795;SDS011;65745;50.278;18.192;2022-12-07T05:05:59;8.90;;;6.40;;
76795;SDS011;65745;50.278;18.192;2022-12-07T05:08:31;7.10;;;6.20;;
76795;SDS011;65745;50.278;18.192;2022-12-07T05:11:04;7.30;;;6.20;;
76795;SDS011;65745;50.278;18.192;2022-12-07T05:13:37;8.20;;;6.10;;
76795;SDS011;65745;50.278;18.192;2022-12-07T05:16:09;5.10;;;4.50;;
76795;SDS011;65745;50.278;18.192;2022-12-07T05:18:42;5.90;;;5.00;;
76795;SDS011;65745;50.278;18.192;2022-12-07T05:21:14;8.80;;;7.00;;
76795;SDS011;65745;50.278;18.192;2022-12-07T05:23:47;9.10;;;7.10;;
76795;SDS011;65745;50.278;18.192;2022-12-07T05:26:19;7.80;;;6.00;;
76795;SDS011;65745;50.278;18.192;2022-12-07T05:28:51;9.00;;;6.60;;
76795;SDS011;65745;50.278;18.192;2022-12-07T05:31:25;8.60;;;6.20;;
76795;SDS011;65745;50.278;18.192;2022-12-07T05:33:57;8.70;;;7.00;;
76795;SDS011;65745;50.278;18.192;2022-12-07T05:36:30;9.30;;;7.30;;
76795;SDS011;65745;50.278;18.192;2022-12-07T05:39:03;8.70;;;6.30;;
76795;SDS011;65745;50.278;18.192;2022-12-07T05:41:35;9.50;;;6.40;;
76795;SDS011;65745;50.278;18.192;2022-12-07T05:44:25;9.30;;;7.00;;
76795;SDS011;65745;50.278;18.192;2022-12-07T05:46:57;7.20;;;5.40;;
76795;SDS011;65745;50.278;18.192;2022-12-07T05:49:30;6.10;;;4.50;;
76795;SDS011;65745;50.278;18.192;2022-12-07T05:52:02;11.00;;;6.60;;
76795;SDS011;65745;50.278;18.192;2022-12-07T05:54:35;6.30;;;5.00;;
76795;SDS011;65745;50.278;18.192;2022-12-07T05:57:07;5.50;;;4.00;;
76795;SDS011;65745;50.278;18.192;2022-12-07T05:59:39;4.80;;;3.90;;
76795;SDS011;65745;50.278;18.192;2022-12-07T06:02:12;4.80;;;3.80;;
76795;SDS011;65745;50.278;18.192;2022-12-07T06:04:46;4.30;;;3.80;;
76795;SDS011;65745;50.278;18.192;2022-12-07T06:07:18;4.90;;;3.10;;
76795;SDS011;65745;50.278;18.192;2022-12-07T06:09:50;4.00;;;3.30;;
76795;SDS011;65745;50.278;18.192;2022-12-07T06:12:22;3.40;;;2.50;;
76795;SDS011;65745;50.278;18.192;2022-12-07T06:15:09;2.50;;;2.10;;
76795;SDS011;65745;50.278;18.192;2022-12-07T06:17:42;2.30;;;2.10;;
76795;SDS011;65745;50.278;18.192;2022-12-07T06:20:14;3.70;;;2.80;;
76795;SDS011;65745;50.278;18.192;2022-12-07T06:22:47;4.60;;;2.90;;
76795;SDS011;65745;50.278;18.192;2022-12-07T06:25:19;3.50;;;2.70;;
76795;SDS011;65745;50.278;18.192;2022-12-07T06:27:51;4.10;;;2.70;;
76795;SDS011;65745;50.278;18.192;2022-12-07T06:30:24;4.30;;;2.60;;
76795;SDS011;65745;50.278;18.192;2022-12-07T06:32:57;3.10;;;2.30;;
76795;SDS011;65745;50.278;18.192;2022-12-07T06:35:31;2.00;;;1.80;;
76795;SDS011;65745;50.278;18.192;2022-12-07T06:38:04;2.90;;;2.30;;
76795;SDS011;65745;50.278;18.192;2022-12-07T06:40:36;4.10;;;2.90;;
76795;SDS011;65745;50.278;18.192;2022-12-07T06:43:09;3.70;;;2.90;;
76795;SDS011;65745;50.278;18.192;2022-12-07T06:45:41;4.10;;;3.10;;
76795;SDS011;65745;50.278;18.192;2022-12-07T06:48:14;6.80;;;4.00;;
76795;SDS011;65745;50.278;18.192;2022-12-07T06:50:46;4.40;;;3.60;;
76795;SDS011;65745;50.278;18.192;2022-12-07T06:53:23;5.00;;;3.90;;
76795;SDS011;65745;50.278;18.192;2022-12-07T06:55:56;5.10;;;3.30;;
76795;SDS011;65745;50.278;18.192;2022-12-07T06:58:28;4.50;;;3.90;;
76795;SDS011;65745;50.278;18.192;2022-12-07T07:01:01;5.40;;;4.10;;
76795;SDS011;65745;50.278;18.192;2022-12-07T07:03:38;5.50;;;4.50;;
76795;SDS011;65745;50.278;18.192;2022-12-07T07:06:11;6.90;;;4.40;;
76795;SDS011;65745;50.278;18.192;2022-12-07T07:08:44;6.20;;;4.70;;
76795;SDS011;65745;50.278;18.192;2022-12-07T07:11:17;5.50;;;4.70;;
76795;SDS011;65745;50.278;18.192;2022-12-07T07:13:49;5.20;;;4.20;;
76795;SDS011;65745;50.278;18.192;2022-12-07T07:16:23;10.50;;;8.90;;
76795;SDS011;65745;50.278;18.192;2022-12-07T07:18:55;7.20;;;6.30;;
76795;SDS011;65745;50.278;18.192;2022-12-07T07:21:27;8.30;;;7.30;;
76795;SDS011;65745;50.278;18.192;2022-12-07T07:24:00;4.90;;;4.40;;
76795;SDS011;65745;50.278;18.192;2022-12-07T07:26:32;5.90;;;4.60;;
76795;SDS011;65745;50.278;18.192;2022-12-07T07:29:05;7.00;;;4.30;;
76795;SDS011;65745;50.278;18.192;2022-12-07T07:31:37;6.90;;;4.70;;
76795;SDS011;65745;50.278;18.192;2022-12-07T07:34:09;8.10;;;5.60;;
76795;SDS011;65745;50.278;18.192;2022-12-07T07:36:42;10.80;;;6.30;;
76795;SDS011;65745;50.278;18.192;2022-12-07T07:39:14;11.50;;;6.70;;
76795;SDS011;65745;50.278;18.192;2022-12-07T07:41:47;10.60;;;6.40;;
76795;SDS011;65745;50.278;18.192;2022-12-07T07:44:25;10.70;;;6.90;;
76795;SDS011;65745;50.278;18.192;2022-12-07T07:47:03;10.20;;;7.00;;
76795;SDS011;65745;50.278;18.192;2022-12-07T07:49:36;9.20;;;6.20;;
76795;SDS011;65745;50.278;18.192;2022-12-07T07:52:15;10.90;;;7.20;;
76795;SDS011;65745;50.278;18.192;2022-12-07T07:54:48;9.00;;;6.70;;
76795;SDS011;65745;50.278;18.192;2022-12-07T07:57:21;9.40;;;6.70;;
76795;SDS011;65745;50.278;18.192;2022-12-07T07:59:53;10.50;;;7.00;;
76795;SDS011;65745;50.278;18.192;2022-12-07T08:02:26;11.80;;;7.50;;
76795;SDS011;65745;50.278;18.192;2022-12-07T08:04:59;10.50;;;7.90;;
76795;SDS011;65745;50.278;18.192;2022-12-07T08:07:31;12.20;;;9.50;;
76795;SDS011;65745;50.278;18.192;2022-12-07T08:10:05;11.70;;;8.20;;
76795;SDS011;65745;50.278;18.192;2022-12-07T08:12:40;13.30;;;8.90;;
76795;SDS011;65745;50.278;18.192;2022-12-07T08:15:28;11.30;;;8.30;;
76795;SDS011;65745;50.278;18.192;2022-12-07T08:18:01;12.90;;;8.50;;
76795;SDS011;65745;50.278;18.192;2022-12-07T08:20:34;15.70;;;9.90;;
76795;SDS011;65745;50.278;18.192;2022-12-07T08:23:07;14.80;;;9.50;;
76795;SDS011;65745;50.278;18.192;2022-12-07T08:25:40;14.90;;;10.20;;
76795;SDS011;65745;50.278;18.192;2022-12-07T08:28:12;13.30;;;9.80;;
76795;SDS011;65745;50.278;18.192;2022-12-07T08:30:45;17.40;;;10.70;;
76795;SDS011;65745;50.278;18.192;2022-12-07T08:33:18;15.30;;;11.90;;
76795;SDS011;65745;50.278;18.192;2022-12-07T08:35:52;16.70;;;10.80;;
76795;SDS011;65745;50.278;18.192;2022-12-07T08:38:26;16.20;;;12.00;;
76795;SDS011;65745;50.278;18.192;2022-12-07T08:41:01;13.50;;;10.30;;
76795;SDS011;65745;50.278;18.192;2022-12-07T08:43:34;14.90;;;10.40;;
76795;SDS011;65745;50.278;18.192;2022-12-07T08:46:08;14.10;;;10.70;;
76795;SDS011;65745;50.278;18.192;2022-12-07T08:48:45;17.30;;;10.80;;
76795;SDS011;65745;50.278;18.192;2022-12-07T08:51:21;25.10;;;12.60;;
76795;SDS011;65745;50.278;18.192;2022-12-07T08:53:53;29.70;;;14.60;;
76795;SDS011;65745;50.278;18.192;2022-12-07T08:56:29;19.60;;;12.30;;
76795;SDS011;65745;50.278;18.192;2022-12-07T08:59:01;24.80;;;14.20;;
76795;SDS011;65745;50.278;18.192;2022-12-07T09:01:34;19.80;;;11.60;;
76795;SDS011;65745;50.278;18.192;2022-12-07T09:04:07;21.40;;;11.10;;
76795;SDS011;65745;50.278;18.192;2022-12-07T09:06:40;20.50;;;11.70;;
76795;SDS011;65745;50.278;18.192;2022-12-07T09:09:13;18.90;;;10.30;;
76795;SDS011;65745;50.278;18.192;2022-12-07T09:11:46;18.30;;;11.90;;
76795;SDS011;65745;50.278;18.192;2022-12-07T09:14:18;18.80;;;12.30;;
76795;SDS011;65745;50.278;18.192;2022-12-07T09:16:50;18.50;;;12.10;;
76795;SDS011;65745;50.278;18.192;2022-12-07T09:19:23;17.00;;;11.60;;
76795;SDS011;65745;50.278;18.192;2022-12-07T09:21:55;21.20;;;12.90;;
76795;SDS011;65745;50.278;18.192;2022-12-07T09:24:27;18.50;;;11.60;;
76795;SDS011;65745;50.278;18.192;2022-12-07T09:26:59;17.60;;;11.40;;
76795;SDS011;65745;50.278;18.192;2022-12-07T09:29:31;18.60;;;11.00;;
76795;SDS011;65745;50.278;18.192;2022-12-07T09:32:03;18.00;;;11.10;;
76795;SDS011;65745;50.278;18.192;2022-12-07T09:34:39;15.50;;;10.70;;
76795;SDS011;65745;50.278;18.192;2022-12-07T09:37:12;18.40;;;11.70;;
76795;SDS011;65745;50.278;18.192;2022-12-07T09:39:45;19.90;;;12.80;;
76795;SDS011;65745;50.278;18.192;2022-12-07T09:42:32;17.90;;;11.80;;
76795;SDS011;65745;50.278;18.192;2022-12-07T09:45:11;18.40;;;12.40;;
76795;SDS011;65745;50.278;18.192;2022-12-07T09:47:47;17.90;;;12.60;;
76795;SDS011;65745;50.278;18.192;2022-12-07T09:50:20;18.80;;;11.60;;
76795;SDS011;65745;50.278;18.192;2022-12-07T09:52:55;14.30;;;11.30;;
76795;SDS011;65745;50.278;18.192;2022-12-07T09:55:37;16.30;;;9.80;;
76795;SDS011;65745;50.278;18.192;2022-12-07T09:58:12;18.50;;;11.90;;
76795;SDS011;65745;50.278;18.192;2022-12-07T10:00:51;19.60;;;12.40;;
76795;SDS011;65745;50.278;18.192;2022-12-07T10:03:27;18.60;;;11.80;;
76795;SDS011;65745;50.278;18.192;2022-12-07T10:06:00;18.20;;;12.90;;
76795;SDS011;65745;50.278;18.192;2022-12-07T10:08:33;21.50;;;14.10;;
76795;SDS011;65745;50.278;18.192;2022-12-07T10:11:06;18.60;;;12.10;;
76795;SDS011;65745;50.278;18.192;2022-12-07T10:13:40;16.00;;;12.00;;
76795;SDS011;65745;50.278;18.192;2022-12-07T10:16:35;15.80;;;11.60;;
76795;SDS011;65745;50.278;18.192;2022-12-07T10:19:19;15.80;;;12.10;;
76795;SDS011;65745;50.278;18.192;2022-12-07T10:22:07;18.40;;;11.50;;
76795;SDS011;65745;50.278;18.192;2022-12-07T10:24:42;17.40;;;11.60;;
76795;SDS011;65745;50.278;18.192;2022-12-07T10:27:20;18.40;;;12.90;;
76795;SDS011;65745;50.278;18.192;2022-12-07T10:29:56;19.20;;;14.10;;
76795;SDS011;65745;50.278;18.192;2022-12-07T10:32:31;19.60;;;12.50;;
76795;SDS011;65745;50.278;18.192;2022-12-07T10:35:22;16.20;;;11.40;;
76795;SDS011;65745;50.278;18.192;2022-12-07T10:37:56;19.20;;;11.90;;
76795;SDS011;65745;50.278;18.192;2022-12-07T10:40:31;16.60;;;9.80;;
76795;SDS011;65745;50.278;18.192;2022-12-07T10:43:13;13.40;;;9.70;;
76795;SDS011;65745;50.278;18.192;2022-12-07T10:46:05;15.80;;;9.50;;
76795;SDS011;65745;50.278;18.192;2022-12-07T10:51:26;17.50;;;10.50;;
76795;SDS011;65745;50.278;18.192;2022-12-07T10:54:10;14.50;;;9.00;;
76795;SDS011;65745;50.278;18.192;2022-12-07T10:56:55;14.30;;;9.20;;
76795;SDS011;65745;50.278;18.192;2022-12-07T10:59:41;13.20;;;8.60;;
76795;SDS011;65745;50.278;18.192;2022-12-07T11:02:30;10.90;;;7.60;;
76795;SDS011;65745;50.278;18.192;2022-12-07T11:05:17;11.70;;;7.40;;
76795;SDS011;65745;50.278;18.192;2022-12-07T11:07:59;9.80;;;6.60;;
76795;SDS011;65745;50.278;18.192;2022-12-07T11:10:41;10.50;;;6.50;;
76795;SDS011;65745;50.278;18.192;2022-12-07T11:13:29;8.90;;;6.40;;
76795;SDS011;65745;50.278;18.192;2022-12-07T11:16:27;8.50;;;5.60;;
76795;SDS011;65745;50.278;18.192;2022-12-07T11:19:34;8.60;;;6.40;;
76795;SDS011;65745;50.278;18.192;2022-12-07T11:22:22;10.20;;;7.10;;
76795;SDS011;65745;50.278;18.192;2022-12-07T11:25:13;9.90;;;6.90;;
76795;SDS011;65745;50.278;18.192;2022-12-07T11:28:02;10.20;;;6.50;;
76795;SDS011;65745;50.278;18.192;2022-12-07T11:30:46;9.10;;;6.80;;
76795;SDS011;65745;50.278;18.192;2022-12-07T11:33:29;8.70;;;6.50;;
76795;SDS011;65745;50.278;18.192;2022-12-07T11:36:09;9.70;;;6.90;;
76795;SDS011;65745;50.278;18.192;2022-12-07T11:39:02;8.20;;;6.70;;
76795;SDS011;65745;50.278;18.192;2022-12-07T11:41:42;7.90;;;5.80;;
76795;SDS011;65745;50.278;18.192;2022-12-07T11:44:21;8.30;;;5.40;;
76795;SDS011;65745;50.278;18.192;2022-12-07T11:47:02;7.50;;;6.00;;
76795;SDS011;65745;50.278;18.192;2022-12-07T11:49:42;7.80;;;6.20;;
76795;SDS011;65745;50.278;18.192;2022-12-07T11:52:20;6.40;;;5.60;;
76795;SDS011;65745;50.278;18.192;2022-12-07T11:54:58;8.70;;;6.70;;
76795;SDS011;65745;50.278;18.192;2022-12-07T11:57:37;7.30;;;6.00;;
76795;SDS011;65745;50.278;18.192;2022-12-07T12:00:18;6.80;;;5.70;;
76795;SDS011;65745;50.278;18.192;2022-12-07T12:02:52;7.80;;;6.00;;
76795;SDS011;65745;50.278;18.192;2022-12-07T12:05:30;6.50;;;5.30;;
76795;SDS011;65745;50.278;18.192;2022-12-07T12:08:10;6.40;;;5.80;;
76795;SDS011;65745;50.278;18.192;2022-12-07T12:11:08;6.30;;;5.30;;
76795;SDS011;65745;50.278;18.192;2022-12-07T12:17:06;7.60;;;4.50;;
76795;SDS011;65745;50.278;18.192;2022-12-07T12:19:58;5.10;;;4.60;;
76795;SDS011;65745;50.278;18.192;2022-12-07T12:22:36;7.40;;;5.20;;
76795;SDS011;65745;50.278;18.192;2022-12-07T12:25:15;6.00;;;5.00;;
76795;SDS011;65745;50.278;18.192;2022-12-07T12:27:52;5.90;;;4.90;;
76795;SDS011;65745;50.278;18.192;2022-12-07T12:30:31;5.40;;;4.60;;
76795;SDS011;65745;50.278;18.192;2022-12-07T12:33:13;6.40;;;4.30;;
76795;SDS011;65745;50.278;18.192;2022-12-07T12:38:50;6.20;;;4.40;;
76795;SDS011;65745;50.278;18.192;2022-12-07T12:41:54;6.80;;;4.90;;
76795;SDS011;65745;50.278;18.192;2022-12-07T12:44:43;6.80;;;5.00;;
76795;SDS011;65745;50.278;18.192;2022-12-07T12:47:55;7.40;;;5.10;;
76795;SDS011;65745;50.278;18.192;2022-12-07T12:50:32;10.60;;;5.30;;
76795;SDS011;65745;50.278;18.192;2022-12-07T12:53:16;7.40;;;5.20;;
76795;SDS011;65745;50.278;18.192;2022-12-07T13:02:09;7.90;;;5.40;;
76795;SDS011;65745;50.278;18.192;2022-12-07T13:04:54;6.90;;;5.30;;
76795;SDS011;65745;50.278;18.192;2022-12-07T13:10:24;8.70;;;6.40;;
76795;SDS011;65745;50.278;18.192;2022-12-07T13:13:08;9.00;;;6.40;;
76795;SDS011;65745;50.278;18.192;2022-12-07T13:22:39;8.20;;;5.40;;
76795;SDS011;65745;50.278;18.192;2022-12-07T13:25:18;6.90;;;5.30;;
76795;SDS011;65745;50.278;18.192;2022-12-07T13:28:07;8.40;;;5.50;;
76795;SDS011;65745;50.278;18.192;2022-12-07T13:30:50;7.80;;;5.10;;
76795;SDS011;65745;50.278;18.192;2022-12-07T13:33:33;6.00;;;4.70;;
76795;SDS011;65745;50.278;18.192;2022-12-07T13:36:08;7.90;;;5.70;;
76795;SDS011;65745;50.278;18.192;2022-12-07T13:38:52;9.10;;;7.20;;
76795;SDS011;65745;50.278;18.192;2022-12-07T13:41:27;11.20;;;6.90;;
76795;SDS011;65745;50.278;18.192;2022-12-07T13:44:01;9.00;;;7.50;;
76795;SDS011;65745;50.278;18.192;2022-12-07T13:46:43;11.00;;;7.50;;
76795;SDS011;65745;50.278;18.192;2022-12-07T13:49:20;11.90;;;8.20;;
76795;SDS011;65745;50.278;18.192;2022-12-07T13:51:55;12.20;;;8.30;;
76795;SDS011;65745;50.278;18.192;2022-12-07T13:54:45;14.60;;;9.40;;
76795;SDS011;65745;50.278;18.192;2022-12-07T13:57:18;14.80;;;8.90;;
76795;SDS011;65745;50.278;18.192;2022-12-07T13:59:52;14.30;;;8.60;;
76795;SDS011;65745;50.278;18.192;2022-12-07T14:02:26;15.00;;;10.20;;
76795;SDS011;65745;50.278;18.192;2022-12-07T14:05:08;13.10;;;9.20;;
76795;SDS011;65745;50.278;18.192;2022-12-07T14:07:52;14.50;;;8.20;;
76795;SDS011;65745;50.278;18.192;2022-12-07T14:10:27;12.30;;;8.70;;
76795;SDS011;65745;50.278;18.192;2022-12-07T14:13:03;10.00;;;8.30;;
76795;SDS011;65745;50.278;18.192;2022-12-07T14:16:00;12.00;;;8.10;;
76795;SDS011;65745;50.278;18.192;2022-12-07T14:18:37;13.20;;;8.20;;
76795;SDS011;65745;50.278;18.192;2022-12-07T14:21:16;11.60;;;7.90;;
76795;SDS011;65745;50.278;18.192;2022-12-07T14:24:09;10.50;;;7.30;;
76795;SDS011;65745;50.278;18.192;2022-12-07T14:26:51;10.00;;;7.30;;
76795;SDS011;65745;50.278;18.192;2022-12-07T14:29:28;10.40;;;7.40;;
76795;SDS011;65745;50.278;18.192;2022-12-07T14:32:14;12.00;;;7.70;;
76795;SDS011;65745;50.278;18.192;2022-12-07T14:34:58;8.70;;;7.60;;
76795;SDS011;65745;50.278;18.192;2022-12-07T14:37:32;9.70;;;7.40;;
76795;SDS011;65745;50.278;18.192;2022-12-07T14:40:06;8.60;;;6.10;;
76795;SDS011;65745;50.278;18.192;2022-12-07T14:42:42;8.50;;;6.70;;
76795;SDS011;65745;50.278;18.192;2022-12-07T14:45:17;11.90;;;6.90;;
76795;SDS011;65745;50.278;18.192;2022-12-07T14:47:51;9.60;;;6.40;;
76795;SDS011;65745;50.278;18.192;2022-12-07T14:50:44;8.30;;;6.90;;
76795;SDS011;65745;50.278;18.192;2022-12-07T14:53:40;7.10;;;5.30;;
76795;SDS011;65745;50.278;18.192;2022-12-07T14:56:21;7.90;;;5.70;;
76795;SDS011;65745;50.278;18.192;2022-12-07T14:58:53;8.10;;;5.60;;
76795;SDS011;65745;50.278;18.192;2022-12-07T15:01:28;7.40;;;4.50;;
76795;SDS011;65745;50.278;18.192;2022-12-07T15:04:00;7.80;;;5.20;;
76795;SDS011;65745;50.278;18.192;2022-12-07T15:06:35;7.40;;;5.30;;
76795;SDS011;65745;50.278;18.192;2022-12-07T15:09:08;7.20;;;5.40;;
76795;SDS011;65745;50.278;18.192;2022-12-07T15:11:41;7.00;;;5.00;;
76795;SDS011;65745;50.278;18.192;2022-12-07T15:14:13;8.60;;;5.00;;
76795;SDS011;65745;50.278;18.192;2022-12-07T15:16:46;7.90;;;5.00;;
76795;SDS011;65745;50.278;18.192;2022-12-07T15:19:37;5.90;;;4.80;;
76795;SDS011;65745;50.278;18.192;2022-12-07T15:22:10;7.50;;;5.20;;
76795;SDS011;65745;50.278;18.192;2022-12-07T15:24:42;5.60;;;4.60;;
76795;SDS011;65745;50.278;18.192;2022-12-07T15:27:16;9.40;;;5.30;;
76795;SDS011;65745;50.278;18.192;2022-12-07T15:29:48;6.60;;;5.40;;
76795;SDS011;65745;50.278;18.192;2022-12-07T15:32:22;5.60;;;4.40;;
76795;SDS011;65745;50.278;18.192;2022-12-07T15:36:08;6.50;;;4.80;;
76795;SDS011;65745;50.278;18.192;2022-12-07T15:38:50;5.80;;;4.10;;
76795;SDS011;65745;50.278;18.192;2022-12-07T15:41:42;5.20;;;3.80;;
76795;SDS011;65745;50.278;18.192;2022-12-07T15:44:15;6.30;;;3.70;;
76795;SDS011;65745;50.278;18.192;2022-12-07T15:47:05;5.10;;;3.90;;
76795;SDS011;65745;50.278;18.192;2022-12-07T15:49:37;5.60;;;4.20;;
76795;SDS011;65745;50.278;18.192;2022-12-07T15:52:10;5.10;;;3.70;;
76795;SDS011;65745;50.278;18.192;2022-12-07T15:54:42;6.80;;;3.90;;
76795;SDS011;65745;50.278;18.192;2022-12-07T15:57:14;4.10;;;2.90;;